Time;durP1;ratioP1;P1;durP2;ratioP2;P2;SDS_P1;SDS_P2;PMS_P1;PMS_P2;Temp;Humidity;BMP_temperature;BMP_pressure;BME280_temperature;BME280_humidity;BME280_pressure;Samples;Min_cycle;Max_cycle;Signal;HPM_P1;HPM_P2
2023/03/04 00:01:10;;;;;;;2.70;0.52;;;;;;;6.72;100.00;102281.25;5040169;28;20025;-55
2023/03/04 00:03:36;;;;;;;2.63;0.22;;;;;;;6.65;100.00;102277.41;5048733;28;20041;-53
2023/03/04 00:06:01;;;;;;;5.63;0.70;;;;;;;6.58;100.00;102267.47;5047887;28;20031;-53
2023/03/04 00:08:26;;;;;;;5.32;0.60;;;;;;;6.61;100.00;102280.41;5053560;28;20036;-55
2023/03/04 00:10:52;;;;;;;2.88;1.05;;;;;;;6.69;100.00;102273.56;5048502;28;20496;-49
2023/03/04 00:13:20;;;;;;;8.00;1.40;;;;;;;6.72;100.00;102273.31;5046332;28;20107;-53
2023/03/04 00:15:45;;;;;;;2.22;0.68;;;;;;;6.76;100.00;102264.22;5062426;28;20029;-51
2023/03/04 00:18:10;;;;;;;5.95;0.35;;;;;;;6.75;100.00;102269.59;5053104;28;20064;-51
2023/03/04 00:20:36;;;;;;;10.35;0.95;;;;;;;6.73;100.00;102274.16;5048888;28;20060;-53
2023/03/04 00:23:01;;;;;;;4.13;0.30;;;;;;;6.61;100.00;102281.25;5046161;28;20115;-55
2023/03/04 00:25:26;;;;;;;3.50;1.67;;;;;;;6.65;100.00;102276.56;5052680;28;20400;-51
2023/03/04 00:27:52;;;;;;;11.02;1.17;;;;;;;6.62;100.00;102285.56;5045840;28;20029;-53
2023/03/04 00:30:17;;;;;;;9.25;0.30;;;;;;;6.63;100.00;102279.31;5049670;28;20033;-52
2023/03/04 00:32:42;;;;;;;3.88;0.60;;;;;;;6.66;100.00;102275.59;5047167;28;20037;-53
2023/03/04 00:35:08;;;;;;;4.53;1.85;;;;;;;6.62;100.00;102269.75;5049065;28;20044;-52
2023/03/04 00:37:33;;;;;;;1.77;0.10;;;;;;;6.65;100.00;102285.31;5043722;28;20036;-51
2023/03/04 00:39:59;;;;;;;3.40;0.82;;;;;;;6.60;100.00;102278.72;5049532;28;20037;-55
2023/03/04 00:42:24;;;;;;;3.47;0.45;;;;;;;6.56;100.00;102272.88;5046643;28;20075;-55
2023/03/04 00:44:50;;;;;;;3.97;0.15;;;;;;;6.57;100.00;102281.63;5049802;28;20040;-54
2023/03/04 00:47:16;;;;;;;12.05;0.60;;;;;;;6.52;100.00;102271.44;5041263;28;20113;-52
2023/03/04 00:49:41;;;;;;;8.70;1.27;;;;;;;6.57;100.00;102274.53;5052853;28;20064;-53
2023/03/04 00:52:06;;;;;;;5.05;1.20;;;;;;;6.57;100.00;102269.28;5045399;28;20474;-52
2023/03/04 00:54:32;;;;;;;5.50;0.60;;;;;;;6.55;100.00;102269.38;5036821;28;20036;-49
2023/03/04 00:56:57;;;;;;;1.15;0.20;;;;;;;6.56;100.00;102278.16;5048341;28;20385;-54
2023/03/04 00:59:22;;;;;;;0.90;0.50;;;;;;;6.59;100.00;102275.25;5056920;28;20059;-54
2023/03/04 01:01:48;;;;;;;6.68;1.02;;;;;;;6.58;100.00;102281.47;5048814;28;20025;-54
2023/03/04 01:04:13;;;;;;;11.13;0.32;;;;;;;6.54;100.00;102277.41;5051154;28;20064;-49
2023/03/04 01:06:38;;;;;;;3.42;1.80;;;;;;;6.47;100.00;102278.84;5045938;28;20052;-54
2023/03/04 01:09:04;;;;;;;2.17;0.55;;;;;;;6.42;100.00;102281.84;5049957;28;20127;-55
2023/03/04 01:11:29;;;;;;;4.15;1.02;;;;;;;6.35;100.00;102291.22;5045962;28;20075;-54
2023/03/04 01:13:55;;;;;;;10.20;0.38;;;;;;;6.36;100.00;102284.97;5043886;28;20048;-55
2023/03/04 01:16:20;;;;;;;2.17;0.15;;;;;;;6.38;100.00;102285.69;5056182;28;20130;-53
2023/03/04 01:18:46;;;;;;;6.30;0.52;;;;;;;6.45;100.00;102278.13;5048221;28;20021;-50
2023/03/04 01:21:12;;;;;;;1.95;1.20;;;;;;;6.48;100.00;102281.38;5047548;28;20334;-53
2023/03/04 01:23:37;;;;;;;2.97;0.45;;;;;;;6.55;100.00;102281.72;5049515;28;20039;-51
2023/03/04 01:26:03;;;;;;;3.20;0.60;;;;;;;6.53;100.00;102281.88;5053893;28;20047;-54
2023/03/04 01:28:28;;;;;;;0.47;0.40;;;;;;;6.50;100.00;102279.44;5046585;28;20067;-50
2023/03/04 01:30:53;;;;;;;4.55;0.38;;;;;;;6.44;100.00;102290.47;5047689;28;20040;-51
2023/03/04 01:33:19;;;;;;;3.97;0.45;;;;;;;6.45;100.00;102280.75;5044300;28;20060;-54
2023/03/04 01:35:44;;;;;;;7.72;0.13;;;;;;;6.37;100.00;102283.16;5051615;28;20099;-53
2023/03/04 01:38:11;;;;;;;1.63;0.40;;;;;;;6.44;100.00;102279.94;5047104;28;20064;-55
2023/03/04 01:40:37;;;;;;;3.70;0.20;;;;;;;6.44;100.00;102268.56;5046705;28;20025;-56
2023/03/04 01:43:03;;;;;;;8.20;0.32;;;;;;;6.48;100.00;102270.84;5041106;28;20424;-54
2023/03/04 01:45:31;;;;;;;2.50;1.48;;;;;;;6.51;100.00;102269.75;5044763;28;20541;-49
2023/03/04 01:47:56;;;;;;;5.07;0.90;;;;;;;6.59;100.00;102269.16;5054459;28;20032;-51
2023/03/04 01:50:28;;;;;;;3.60;0.28;;;;;;;6.60;100.00;102258.47;5050782;28;20446;-52
2023/03/04 01:52:54;;;;;;;4.55;0.38;;;;;;;6.63;100.00;102252.97;5041430;28;20035;-53
2023/03/04 01:55:22;;;;;;;5.70;0.80;;;;;;;6.58;100.00;102255.13;5043056;28;20432;-49
2023/03/04 01:57:49;;;;;;;6.93;0.45;;;;;;;6.54;100.00;102259.81;5046111;28;20057;-50
2023/03/04 02:00:30;;;;;;;4.55;0.95;;;;;;;6.50;100.00;102249.63;5051725;28;20048;-54
2023/03/04 02:03:03;;;;;;;8.07;1.63;;;;;;;6.52;100.00;102263.53;5039412;28;20064;-52
2023/03/04 02:05:29;;;;;;;3.47;0.85;;;;;;;6.51;100.00;102254.78;5049353;28;20029;-54
2023/03/04 02:07:57;;;;;;;6.88;0.68;;;;;;;6.43;100.00;102243.16;5048042;28;20025;-52
2023/03/04 02:10:23;;;;;;;0.30;0.20;;;;;;;6.49;100.00;102243.53;5048667;28;20026;-51
2023/03/04 02:12:49;;;;;;;1.08;0.75;;;;;;;6.59;100.00;102250.72;5044230;28;20434;-52
2023/03/04 02:15:15;;;;;;;2.78;0.38;;;;;;;6.55;100.00;102239.56;5047315;28;20496;-54
2023/03/04 02:17:41;;;;;;;8.77;1.73;;;;;;;6.58;100.00;102238.47;5051656;28;20086;-53
2023/03/04 02:20:29;;;;;;;5.85;0.75;;;;;;;6.65;100.00;102237.88;5048437;28;20029;-54
2023/03/04 02:23:13;;;;;;;3.58;1.33;;;;;;;6.59;100.00;102235.72;5044888;28;20399;-52
2023/03/04 02:25:53;;;;;;;1.27;0.40;;;;;;;6.52;100.00;102234.53;5053908;28;20431;-54
2023/03/04 02:28:20;;;;;;;2.45;1.05;;;;;;;6.45;100.00;102221.00;5048411;28;20037;-54
2023/03/04 02:30:45;;;;;;;7.78;1.02;;;;;;;6.43;100.00;102235.25;5048049;28;20040;-53
2023/03/04 02:33:16;;;;;;;1.63;1.08;;;;;;;6.36;100.00;102228.81;5046152;28;20029;-53
2023/03/04 02:35:42;;;;;;;5.15;1.23;;;;;;;6.39;100.00;102228.56;5048324;28;20032;-50
2023/03/04 02:38:09;;;;;;;2.25;0.98;;;;;;;6.41;100.00;102222.22;5046970;28;20032;-56
2023/03/04 02:40:34;;;;;;;3.35;1.10;;;;;;;6.42;100.00;102217.78;5045629;28;20036;-54
2023/03/04 02:43:00;;;;;;;4.15;1.23;;;;;;;6.44;100.00;102215.84;5042821;28;20043;-53
2023/03/04 02:45:37;;;;;;;3.55;1.00;;;;;;;6.40;100.00;102211.78;5049726;28;20394;-50
2023/03/04 02:48:03;;;;;;;8.45;1.05;;;;;;;6.42;100.00;102208.06;5052518;28;20047;-54
2023/03/04 02:50:33;;;;;;;3.17;1.20;;;;;;;6.45;100.00;102207.81;5052170;28;20525;-53
2023/03/04 02:52:59;;;;;;;9.15;1.70;;;;;;;6.43;100.00;102208.91;5051668;28;20056;-56
2023/03/04 02:55:24;;;;;;;10.50;1.10;;;;;;;6.42;100.00;102209.88;5045596;28;20021;-54
2023/03/04 02:57:49;;;;;;;12.73;2.13;;;;;;;6.25;100.00;102213.84;5051187;28;20538;-53
2023/03/04 03:00:15;;;;;;;7.63;1.77;;;;;;;6.33;100.00;102214.91;5052904;28;20041;-56
2023/03/04 03:02:40;;;;;;;6.97;1.95;;;;;;;6.41;100.00;102206.41;5052671;28;20025;-54
2023/03/04 03:05:06;;;;;;;2.20;1.20;;;;;;;6.56;100.00;102212.25;5053100;28;20043;-53
2023/03/04 03:07:33;;;;;;;2.22;0.63;;;;;;;6.63;100.00;102207.31;5050868;28;20025;-53
2023/03/04 03:09:59;;;;;;;6.07;0.95;;;;;;;6.64;100.00;102207.22;5050597;28;20502;-56
2023/03/04 03:12:25;;;;;;;4.00;0.80;;;;;;;6.66;100.00;102207.94;5044882;28;20056;-53
2023/03/04 03:14:50;;;;;;;5.47;1.38;;;;;;;6.58;100.00;102199.78;5046402;28;20764;-55
2023/03/04 03:17:15;;;;;;;4.80;0.80;;;;;;;6.57;100.00;102195.47;5050021;28;20025;-53
2023/03/04 03:19:41;;;;;;;1.77;1.17;;;;;;;6.52;100.00;102203.75;5045638;28;20053;-52
2023/03/04 03:22:06;;;;;;;8.20;2.17;;;;;;;6.60;100.00;102197.84;5039410;28;20095;-52
2023/03/04 03:24:31;;;;;;;3.78;0.60;;;;;;;6.63;100.00;102197.59;5044639;28;20550;-52
2023/03/04 03:26:57;;;;;;;1.92;0.47;;;;;;;6.54;100.00;102193.91;5041333;28;20032;-53
2023/03/04 03:29:22;;;;;;;0.35;0.35;;;;;;;6.59;100.00;102198.00;5047376;28;20037;-50
2023/03/04 03:31:47;;;;;;;0.68;0.30;;;;;;;6.61;100.00;102202.19;5055007;28;20030;-53
2023/03/04 03:34:13;;;;;;;1.98;0.50;;;;;;;6.54;100.00;102195.72;5046485;28;20082;-55
2023/03/04 03:36:38;;;;;;;10.13;1.40;;;;;;;6.54;100.00;102206.25;5049291;28;20120;-52
2023/03/04 03:39:04;;;;;;;1.65;1.25;;;;;;;6.57;100.00;102203.38;5051674;28;20204;-51
2023/03/04 03:41:29;;;;;;;3.33;0.43;;;;;;;6.58;100.00;102197.13;5047586;28;20040;-51
2023/03/04 03:43:55;;;;;;;4.68;0.90;;;;;;;6.55;100.00;102203.47;5047049;28;20603;-55
2023/03/04 03:46:21;;;;;;;6.40;0.85;;;;;;;6.48;100.00;102201.47;5038247;28;20150;-54
2023/03/04 03:48:46;;;;;;;5.57;0.70;;;;;;;6.56;100.00;102193.81;5049096;28;20150;-55
2023/03/04 03:51:11;;;;;;;12.85;0.73;;;;;;;6.65;100.00;102194.84;5045279;28;20120;-54
2023/03/04 03:53:37;;;;;;;1.98;0.57;;;;;;;6.63;100.00;102197.59;5047186;28;20024;-51
2023/03/04 03:56:03;;;;;;;2.05;0.50;;;;;;;6.68;100.00;102199.88;5054902;28;20036;-52
2023/03/04 03:58:28;;;;;;;4.13;0.60;;;;;;;6.64;100.00;102193.19;5049955;28;20051;-54
2023/03/04 04:00:53;;;;;;;3.05;1.10;;;;;;;6.66;100.00;102202.66;5055054;28;20031;-54
2023/03/04 04:03:19;;;;;;;4.82;1.25;;;;;;;6.73;100.00;102200.34;5038292;28;20277;-54
2023/03/04 04:05:44;;;;;;;4.60;0.68;;;;;;;6.74;100.00;102194.13;5054675;28;20086;-52
2023/03/04 04:08:15;;;;;;;3.28;0.80;;;;;;;6.87;100.00;102193.97;5048910;28;20083;-54
2023/03/04 04:10:41;;;;;;;5.97;2.33;;;;;;;6.88;100.00;102187.72;5045614;28;20068;-52
2023/03/04 04:13:07;;;;;;;2.40;1.08;;;;;;;6.76;100.00;102195.69;5040752;28;20422;-52
2023/03/04 04:15:32;;;;;;;3.42;1.35;;;;;;;6.87;100.00;102186.06;5047497;28;20146;-53
2023/03/04 04:17:57;;;;;;;6.32;1.95;;;;;;;6.88;100.00;102185.09;5048071;28;20051;-53
2023/03/04 04:20:23;;;;;;;5.95;0.63;;;;;;;6.94;100.00;102188.06;5049654;28;20374;-51
2023/03/04 04:22:49;;;;;;;5.80;0.95;;;;;;;6.91;100.00;102190.09;5044677;28;20506;-51
2023/03/04 04:25:14;;;;;;;5.93;0.85;;;;;;;6.94;100.00;102196.00;5053074;28;20025;-52
2023/03/04 04:27:39;;;;;;;5.20;2.42;;;;;;;6.90;100.00;102191.91;5045406;28;20190;-52
2023/03/04 04:30:05;;;;;;;3.92;1.60;;;;;;;6.90;100.00;102197.19;5047297;28;20032;-50
2023/03/04 04:32:31;;;;;;;0.47;0.47;;;;;;;6.91;100.00;102192.75;5048400;28;20044;-56
2023/03/04 04:34:56;;;;;;;3.85;1.88;;;;;;;6.87;100.00;102200.06;5045942;28;20486;-55
2023/03/04 04:37:21;;;;;;;3.83;1.00;;;;;;;6.91;100.00;102195.38;5048715;28;20477;-51
2023/03/04 04:39:46;;;;;;;3.30;0.65;;;;;;;6.88;100.00;102196.47;5048612;28;20025;-54
2023/03/04 04:42:12;;;;;;;3.60;0.68;;;;;;;6.81;100.00;102207.63;5041933;28;20033;-51
2023/03/04 04:44:37;;;;;;;0.47;0.45;;;;;;;6.86;100.00;102216.84;5046521;28;20056;-54
2023/03/04 04:47:05;;;;;;;3.40;0.68;;;;;;;6.92;100.00;102212.91;5044988;28;20029;-53
2023/03/04 04:49:31;;;;;;;3.67;0.45;;;;;;;6.89;100.00;102206.06;5047099;28;20112;-50
2023/03/04 04:51:56;;;;;;;9.52;0.85;;;;;;;6.88;100.00;102206.19;5045745;28;20037;-49
2023/03/04 04:54:21;;;;;;;3.83;0.38;;;;;;;6.86;100.00;102211.56;5048560;28;20021;-53
2023/03/04 04:56:47;;;;;;;6.65;1.10;;;;;;;6.85;100.00;102215.19;5047752;28;20441;-54
2023/03/04 04:59:13;;;;;;;0.95;0.32;;;;;;;6.62;100.00;102219.66;5046065;28;20077;-55
2023/03/04 05:01:38;;;;;;;4.78;0.43;;;;;;;6.66;100.00;102214.97;5048494;28;20154;-52
2023/03/04 05:04:04;;;;;;;2.67;0.13;;;;;;;6.63;100.00;102208.16;5046337;28;20456;-52
2023/03/04 05:06:29;;;;;;;1.33;0.22;;;;;;;6.74;100.00;102221.31;5045691;28;20040;-54
2023/03/04 05:08:55;;;;;;;1.08;0.20;;;;;;;6.70;100.00;102222.53;5046654;28;20041;-55
2023/03/04 05:11:21;;;;;;;4.18;1.25;;;;;;;6.88;100.00;102228.09;5048151;28;20033;-51
2023/03/04 05:13:47;;;;;;;0.55;0.20;;;;;;;6.89;100.00;102223.66;5045569;28;20076;-54
2023/03/04 05:16:13;;;;;;;6.65;0.60;;;;;;;6.85;100.00;102227.53;5045517;28;20565;-49
2023/03/04 05:18:39;;;;;;;3.15;0.45;;;;;;;6.84;100.00;102233.75;5048554;28;20027;-51
2023/03/04 05:21:04;;;;;;;2.67;0.60;;;;;;;6.75;100.00;102230.06;5046742;28;20111;-55
2023/03/04 05:23:36;;;;;;;2.53;0.25;;;;;;;6.73;100.00;102232.81;5042059;28;20430;-55
2023/03/04 05:26:03;;;;;;;3.80;0.25;;;;;;;6.75;100.00;102228.25;5042690;28;20032;-51
2023/03/04 05:28:29;;;;;;;2.63;0.30;;;;;;;6.66;100.00;102236.91;5038082;28;20060;-52
2023/03/04 05:30:54;;;;;;;3.15;0.20;;;;;;;6.71;100.00;102228.63;5038966;28;20415;-53
2023/03/04 05:33:20;;;;;;;1.17;0.30;;;;;;;6.76;100.00;102237.00;5038305;28;20035;-49
2023/03/04 05:35:47;;;;;;;10.93;2.35;;;;;;;6.68;100.00;102240.25;5045954;28;20028;-54
2023/03/04 05:38:14;;;;;;;4.55;1.30;;;;;;;6.63;100.00;102241.56;5046673;28;20163;-51
2023/03/04 05:40:41;;;;;;;3.05;0.70;;;;;;;6.54;100.00;102241.34;5045088;28;20033;-50
2023/03/04 05:43:07;;;;;;;2.38;0.47;;;;;;;6.58;100.00;102241.09;5045675;28;20064;-55
2023/03/04 05:45:33;;;;;;;1.98;0.50;;;;;;;6.57;100.00;102235.00;5044771;28;20513;-54
2023/03/04 05:47:59;;;;;;;5.07;1.02;;;;;;;6.60;100.00;102242.66;5044438;28;20040;-51
2023/03/04 05:50:25;;;;;;;11.80;0.47;;;;;;;6.51;100.00;102249.50;5044817;28;20033;-55
2023/03/04 05:52:50;;;;;;;4.53;2.65;;;;;;;6.69;100.00;102244.56;5045851;28;20087;-52
2023/03/04 05:55:16;;;;;;;1.52;0.77;;;;;;;6.68;100.00;102245.53;5040165;28;20466;-53
2023/03/04 05:57:42;;;;;;;6.78;1.23;;;;;;;6.77;100.00;102241.31;5039477;28;20091;-56
2023/03/04 06:00:09;;;;;;;0.55;0.35;;;;;;;6.81;100.00;102239.28;5043130;28;20036;-54
2023/03/04 06:02:35;;;;;;;1.08;0.63;;;;;;;6.80;100.00;102238.44;5044373;28;20032;-52
2023/03/04 06:05:02;;;;;;;3.13;0.40;;;;;;;6.94;100.00;102242.59;5045178;28;20021;-52
2023/03/04 06:07:27;;;;;;;3.58;1.08;;;;;;;6.94;100.00;102234.69;5042741;28;20474;-55
2023/03/04 06:09:52;;;;;;;1.45;0.30;;;;;;;6.80;100.00;102232.34;5045635;28;20087;-50
2023/03/04 06:12:18;;;;;;;1.77;0.15;;;;;;;6.83;100.00;102240.81;5051542;28;20032;-53
2023/03/04 06:14:43;;;;;;;2.00;0.20;;;;;;;6.80;100.00;102232.34;5036096;28;20482;-54
2023/03/04 06:17:08;;;;;;;2.38;0.25;;;;;;;6.85;100.00;102236.28;5040341;28;20361;-53
2023/03/04 06:19:34;;;;;;;3.20;1.05;;;;;;;6.77;100.00;102234.25;5045101;28;20040;-50
2023/03/04 06:21:59;;;;;;;1.50;0.60;;;;;;;6.84;100.00;102241.66;5044233;28;20029;-54
2023/03/04 06:24:27;;;;;;;3.55;0.65;;;;;;;6.83;100.00;102238.19;5041710;28;20029;-55
2023/03/04 06:26:52;;;;;;;5.68;0.70;;;;;;;6.90;100.00;102238.53;5044005;28;20029;-51
2023/03/04 06:29:17;;;;;;;3.42;1.38;;;;;;;6.83;100.00;102238.19;5051974;28;20037;-55
2023/03/04 06:31:43;;;;;;;0.63;0.52;;;;;;;6.76;100.00;102235.22;5050391;28;20074;-53
2023/03/04 06:34:08;;;;;;;0.90;0.75;;;;;;;6.62;100.00;102240.75;5045507;28;20106;-53
2023/03/04 06:36:34;;;;;;;2.28;0.43;;;;;;;6.67;100.00;102237.75;5057134;28;20501;-52
2023/03/04 06:39:02;;;;;;;4.18;2.35;;;;;;;6.76;100.00;102239.63;5054985;28;20041;-54
2023/03/04 06:41:27;;;;;;;1.27;0.40;;;;;;;6.86;100.00;102234.47;5048662;28;20028;-56
2023/03/04 06:43:53;;;;;;;4.45;0.77;;;;;;;6.93;100.00;102233.00;5051465;28;20074;-52
2023/03/04 06:46:18;;;;;;;0.88;0.77;;;;;;;7.09;100.00;102236.06;5055259;28;20052;-53
2023/03/04 06:48:44;;;;;;;0.10;0.03;;;;;;;7.09;100.00;102232.59;5055982;28;20032;-51
2023/03/04 06:51:10;;;;;;;2.72;0.17;;;;;;;7.02;100.00;102245.44;5051351;28;20056;-53
2023/03/04 06:53:37;;;;;;;0.00;0.00;;;;;;;7.04;100.00;102240.88;5052573;28;20032;-54
2023/03/04 06:56:02;;;;;;;1.33;0.50;;;;;;;6.94;100.00;102250.50;5056255;28;20033;-52
2023/03/04 06:58:28;;;;;;;2.20;0.47;;;;;;;6.94;100.00;102250.50;5056882;28;20493;-51
2023/03/04 07:00:53;;;;;;;0.25;0.20;;;;;;;6.89;100.00;102256.16;5050268;28;20025;-52
2023/03/04 07:03:18;;;;;;;4.30;1.83;;;;;;;6.99;100.00;102259.72;5046577;28;20531;-53
2023/03/04 07:05:44;;;;;;;2.67;0.57;;;;;;;7.08;100.00;102257.31;5050381;28;20073;-52
2023/03/04 07:08:09;;;;;;;5.13;0.30;;;;;;;7.15;100.00;102263.75;5052354;28;20020;-52
2023/03/04 07:10:35;;;;;;;1.85;0.30;;;;;;;6.98;100.00;102265.13;5046134;28;20024;-55
2023/03/04 07:13:00;;;;;;;1.98;0.00;;;;;;;6.83;100.00;102264.56;5049721;28;20032;-53
2023/03/04 07:15:26;;;;;;;0.60;0.17;;;;;;;6.75;100.00;102267.81;5047427;28;20032;-55
2023/03/04 07:17:52;;;;;;;5.63;1.05;;;;;;;6.65;100.00;102274.75;5048815;28;20036;-53
2023/03/04 07:20:17;;;;;;;2.00;0.30;;;;;;;6.63;100.00;102270.56;5049873;28;20029;-52
2023/03/04 07:22:43;;;;;;;1.52;0.20;;;;;;;6.55;100.00;102281.72;5051183;28;20040;-53
2023/03/04 07:25:08;;;;;;;1.67;0.63;;;;;;;6.54;100.00;102274.78;5046960;28;20794;-51
2023/03/04 07:27:33;;;;;;;6.60;0.63;;;;;;;6.53;100.00;102281.88;5042003;28;20021;-54
2023/03/04 07:29:59;;;;;;;0.95;0.22;;;;;;;6.53;100.00;102281.00;5046260;28;20582;-54
2023/03/04 07:32:24;;;;;;;2.15;0.30;;;;;;;6.55;100.00;102271.19;5049777;28;20033;-53
2023/03/04 07:34:50;;;;;;;1.92;0.20;;;;;;;6.65;100.00;102273.94;5044577;28;20031;-54
2023/03/04 07:37:15;;;;;;;0.20;0.10;;;;;;;6.68;100.00;102279.78;5048143;28;20507;-51
2023/03/04 07:39:40;;;;;;;2.50;0.20;;;;;;;6.69;100.00;102273.56;5044910;28;20021;-50
2023/03/04 07:42:06;;;;;;;1.58;0.38;;;;;;;6.74;100.00;102268.78;5052933;28;20537;-55
2023/03/04 07:44:31;;;;;;;3.25;0.45;;;;;;;6.86;100.00;102268.75;5038196;28;20049;-53
2023/03/04 07:46:56;;;;;;;3.05;0.28;;;;;;;6.90;100.00;102270.19;5054179;28;20068;-51
2023/03/04 07:49:22;;;;;;;4.20;0.85;;;;;;;6.95;100.00;102275.94;5054435;28;20060;-50
2023/03/04 07:51:47;;;;;;;6.32;0.30;;;;;;;6.89;100.00;102279.03;5041303;28;20470;-55
2023/03/04 07:54:13;;;;;;;3.15;0.45;;;;;;;6.81;100.00;102287.56;5051201;28;20025;-55
2023/03/04 07:56:38;;;;;;;1.80;0.73;;;;;;;6.78;100.00;102287.81;5051536;28;20036;-52
2023/03/04 07:59:03;;;;;;;1.75;0.28;;;;;;;6.83;100.00;102290.94;5048864;28;20030;-52
2023/03/04 08:01:34;;;;;;;4.13;0.52;;;;;;;6.80;100.00;102283.25;5048126;28;20546;-54
2023/03/04 08:04:00;;;;;;;2.97;0.97;;;;;;;6.83;100.00;102287.44;5048100;28;20033;-53
2023/03/04 08:06:27;;;;;;;2.53;0.25;;;;;;;6.73;100.00;102284.69;5048593;28;20791;-51
2023/03/04 08:09:05;;;;;;;4.47;0.30;;;;;;;6.83;100.00;102290.09;5052902;28;20032;-54
2023/03/04 08:11:31;;;;;;;1.98;1.23;;;;;;;6.87;100.00;102283.63;5050391;28;20096;-53
2023/03/04 08:13:57;;;;;;;1.70;0.40;;;;;;;6.70;100.00;102293.69;5045101;28;20079;-51
2023/03/04 08:16:24;;;;;;;1.38;0.40;;;;;;;6.76;100.00;102295.00;5049638;28;20123;-52
2023/03/04 08:18:52;;;;;;;3.95;0.77;;;;;;;6.75;100.00;102306.53;5043678;28;20051;-54
2023/03/04 08:21:20;;;;;;;2.13;0.63;;;;;;;6.83;100.00;102300.63;5051170;28;20025;-54
2023/03/04 08:23:46;;;;;;;0.57;0.57;;;;;;;6.90;100.00;102296.56;5055434;28;20039;-53
2023/03/04 08:26:15;;;;;;;2.40;0.77;;;;;;;6.91;100.00;102296.41;5048491;28;20466;-50
2023/03/04 08:28:41;;;;;;;3.58;0.80;;;;;;;7.08;100.00;102288.97;5039156;28;20069;-52
2023/03/04 08:31:06;;;;;;;3.17;1.17;;;;;;;7.19;100.00;102292.41;5046710;28;20124;-51
2023/03/04 08:33:32;;;;;;;1.88;1.33;;;;;;;7.24;100.00;102294.66;5053190;28;20025;-53
2023/03/04 08:35:58;;;;;;;2.47;0.55;;;;;;;7.22;100.00;102291.31;5048866;28;20032;-52
2023/03/04 08:38:23;;;;;;;3.22;0.50;;;;;;;7.17;100.00;102293.47;5053577;28;20058;-52
2023/03/04 08:40:56;;;;;;;3.40;0.80;;;;;;;7.24;100.00;102288.56;5047697;28;20070;-51
2023/03/04 08:43:23;;;;;;;1.05;0.43;;;;;;;7.20;100.00;102288.81;5050591;28;20116;-54
2023/03/04 08:45:48;;;;;;;7.70;1.05;;;;;;;7.17;100.00;102289.03;5047020;28;20124;-52
2023/03/04 08:48:15;;;;;;;1.27;0.22;;;;;;;7.13;100.00;102285.00;5049011;28;20135;-52
2023/03/04 08:50:40;;;;;;;1.42;0.28;;;;;;;6.96;100.00;102296.88;5052890;28;20025;-55
2023/03/04 08:53:05;;;;;;;1.65;0.68;;;;;;;6.98;100.00;102291.50;5037214;28;20051;-54
2023/03/04 08:55:31;;;;;;;5.40;0.45;;;;;;;7.07;100.00;102290.75;5051623;28;20029;-56
2023/03/04 08:57:56;;;;;;;2.20;0.55;;;;;;;7.09;100.00;102286.19;5055502;28;20056;-52
2023/03/04 09:00:22;;;;;;;3.47;0.70;;;;;;;7.11;100.00;102288.72;5039877;28;20056;-52
2023/03/04 09:02:48;;;;;;;4.18;2.10;;;;;;;7.13;100.00;102287.63;5042863;28;20383;-55
2023/03/04 09:05:13;;;;;;;1.55;0.80;;;;;;;7.32;100.00;102272.94;5042817;28;20158;-54
2023/03/04 09:07:39;;;;;;;2.40;0.60;;;;;;;7.41;100.00;102280.94;5047066;28;20610;-53
2023/03/04 09:10:05;;;;;;;3.17;0.93;;;;;;;7.35;100.00;102275.31;5050254;28;21153;-55
2023/03/04 09:12:30;;;;;;;2.70;0.68;;;;;;;7.36;100.00;102280.47;5050376;28;20461;-52
2023/03/04 09:14:55;;;;;;;2.63;1.42;;;;;;;7.45;100.00;102283.31;5044433;28;20111;-55
2023/03/04 09:17:21;;;;;;;2.33;1.23;;;;;;;7.52;100.00;102285.31;5049104;28;20059;-52
2023/03/04 09:19:46;;;;;;;6.18;0.43;;;;;;;7.50;100.00;102281.97;5039240;28;20394;-55
2023/03/04 09:22:12;;;;;;;4.57;1.33;;;;;;;7.51;100.00;102280.16;5046453;28;20082;-52
2023/03/04 09:24:37;;;;;;;2.28;0.57;;;;;;;7.56;100.00;102285.91;5049230;28;20424;-50
2023/03/04 09:27:03;;;;;;;3.72;0.40;;;;;;;7.59;100.00;102281.22;5047576;28;20033;-53
2023/03/04 09:29:28;;;;;;;0.43;0.30;;;;;;;7.66;100.00;102284.16;5046581;28;20446;-52
2023/03/04 09:31:53;;;;;;;1.58;0.40;;;;;;;7.75;100.00;102278.13;5047629;28;20075;-55
2023/03/04 09:34:19;;;;;;;0.80;0.70;;;;;;;7.87;100.00;102284.19;5053069;28;20055;-54
2023/03/04 09:36:44;;;;;;;0.63;0.38;;;;;;;7.97;100.00;102282.44;5054079;28;20456;-50
2023/03/04 09:39:09;;;;;;;2.65;0.70;;;;;;;7.93;100.00;102286.31;5047864;28;20554;-56
2023/03/04 09:41:42;;;;;;;1.23;0.70;;;;;;;7.86;100.00;102283.34;5048377;28;20072;-53
2023/03/04 09:44:29;;;;;;;1.30;0.22;;;;;;;7.93;100.00;102288.13;5039175;28;20051;-55
2023/03/04 09:46:59;;;;;;;3.30;1.35;;;;;;;7.88;100.00;102287.69;5042743;28;20044;-53
2023/03/04 09:49:25;;;;;;;2.05;0.38;;;;;;;7.82;100.00;102287.22;5042209;28;20621;-55
2023/03/04 09:51:59;;;;;;;4.32;0.50;;;;;;;7.84;100.00;102284.44;5047377;28;20028;-56
2023/03/04 09:54:44;;;;;;;0.20;0.20;;;;;;;7.92;100.00;102289.06;5038207;28;20111;-54
2023/03/04 09:57:21;;;;;;;6.97;1.48;;;;;;;8.01;100.00;102289.16;5042937;28;20032;-56
2023/03/04 09:59:56;;;;;;;1.42;0.25;;;;;;;8.06;100.00;102292.22;5038666;28;20036;-53
2023/03/04 10:03:02;;;;;;;4.85;0.55;;;;;;;8.18;100.00;102289.50;5033378;28;20614;-54
2023/03/04 10:05:29;;;;;;;0.55;0.32;;;;;;;7.97;100.00;102292.16;5038297;28;20040;-53
2023/03/04 10:08:06;;;;;;;2.05;0.25;;;;;;;7.76;100.00;102286.88;5040595;28;20489;-51
2023/03/04 10:10:36;;;;;;;7.55;2.70;;;;;;;7.69;100.00;102283.91;5037603;28;20036;-50
2023/03/04 10:13:03;;;;;;;2.65;0.82;;;;;;;7.74;100.00;102286.19;5034482;28;20025;-51
2023/03/04 10:15:36;;;;;;;1.75;0.30;;;;;;;7.93;100.00;102286.31;5036456;28;20038;-56
2023/03/04 10:18:16;;;;;;;0.60;0.57;;;;;;;8.05;100.00;102284.44;5035914;28;20037;-54
2023/03/04 10:20:51;;;;;;;2.05;1.00;;;;;;;8.04;100.00;102286.22;5040538;28;20032;-52
2023/03/04 10:23:25;;;;;;;6.43;1.02;;;;;;;8.14;100.00;102291.59;5045068;28;20498;-51
2023/03/04 10:25:53;;;;;;;4.88;0.50;;;;;;;8.13;100.00;102286.41;5045155;28;20130;-54
2023/03/04 10:28:29;;;;;;;6.55;0.60;;;;;;;8.28;100.00;102285.09;5041099;28;20032;-53
2023/03/04 10:31:21;;;;;;;1.65;0.20;;;;;;;8.51;100.00;102276.06;5044885;28;20049;-53
2023/03/04 10:33:46;;;;;;;2.42;0.40;;;;;;;8.62;100.00;102282.22;5044868;28;20029;-51
2023/03/04 10:36:30;;;;;;;3.63;0.73;;;;;;;8.83;100.00;102279.47;5046090;28;20022;-53
2023/03/04 10:39:32;;;;;;;4.47;0.50;;;;;;;8.80;100.00;102270.00;5045006;28;20036;-51
2023/03/04 10:42:04;;;;;;;6.15;0.30;;;;;;;8.69;100.00;102268.31;5032023;28;20120;-54
2023/03/04 10:44:33;;;;;;;0.60;0.30;;;;;;;8.80;100.00;102275.31;5041001;28;20400;-52
2023/03/04 10:46:59;;;;;;;3.15;0.30;;;;;;;8.70;100.00;102264.72;5043941;28;20385;-55
2023/03/04 10:49:27;;;;;;;0.20;0.10;;;;;;;8.68;100.00;102264.00;5045573;28;20111;-52
2023/03/04 10:52:01;;;;;;;4.40;0.30;;;;;;;8.69;100.00;102263.03;5041195;28;20114;-52
2023/03/04 10:54:45;;;;;;;1.75;0.40;;;;;;;8.74;100.00;102260.81;5043979;28;20625;-52
2023/03/04 10:57:17;;;;;;;0.63;0.32;;;;;;;8.70;100.00;102255.97;5044432;28;20040;-51
2023/03/04 11:00:21;;;;;;;0.82;0.10;;;;;;;8.70;100.00;102266.53;5044686;28;20044;-52
2023/03/04 11:02:48;;;;;;;3.28;1.00;;;;;;;8.66;100.00;102259.81;5040881;28;20032;-54
2023/03/04 11:05:13;;;;;;;1.13;0.50;;;;;;;8.62;100.00;102256.63;5040977;28;20478;-51
2023/03/04 11:07:48;;;;;;;2.80;0.30;;;;;;;8.63;100.00;102254.81;5040175;28;20040;-51
2023/03/04 11:10:32;;;;;;;0.63;0.30;;;;;;;8.69;100.00;102249.81;5044017;28;20108;-55
2023/03/04 11:12:57;;;;;;;2.10;0.65;;;;;;;8.73;100.00;102255.69;5043531;28;20060;-55
2023/03/04 11:15:26;;;;;;;1.77;0.20;;;;;;;8.91;100.00;102256.69;5041255;28;20451;-55
2023/03/04 11:18:09;;;;;;;1.58;0.30;;;;;;;9.06;100.00;102258.91;5043009;28;20401;-55
2023/03/04 11:20:39;;;;;;;1.05;0.30;;;;;;;9.22;100.00;102256.59;5043876;28;20052;-56
2023/03/04 11:23:13;;;;;;;1.75;0.30;;;;;;;9.14;100.00;102251.16;5047111;28;20111;-56
2023/03/04 11:26:09;;;;;;;1.00;0.40;;;;;;;9.34;100.00;102246.69;5049751;28;20048;-54